sensor_id;sensor_type;location;lat;lon;timestamp;P1;durP1;ratioP1;P2;durP2;ratioP2
8650;SDS011;4363;52.346;14.516;2022-09-11T00:01:54;248.83;;;146.53;;
8650;SDS011;4363;52.346;14.516;2022-09-11T00:04:20;243.13;;;144.60;;
8650;SDS011;4363;52.346;14.516;2022-09-11T00:06:46;289.13;;;164.07;;
8650;SDS011;4363;52.346;14.516;2022-09-11T00:09:12;292.63;;;157.95;;
8650;SDS011;4363;52.346;14.516;2022-09-11T00:11:39;255.68;;;147.93;;
8650;SDS011;4363;52.346;14.516;2022-09-11T00:14:05;267.50;;;155.05;;
8650;SDS011;4363;52.346;14.516;2022-09-11T00:16:32;263.35;;;151.07;;
8650;SDS011;4363;52.346;14.516;2022-09-11T00:18:59;242.73;;;144.35;;
8650;SDS011;4363;52.346;14.516;2022-09-11T00:21:26;316.63;;;174.32;;
8650;SDS011;4363;52.346;14.516;2022-09-11T00:23:53;266.20;;;152.43;;
8650;SDS011;4363;52.346;14.516;2022-09-11T00:26:19;258.70;;;148.98;;
8650;SDS011;4363;52.346;14.516;2022-09-11T00:28:45;272.92;;;158.68;;
8650;SDS011;4363;52.346;14.516;2022-09-11T00:31:13;270.67;;;155.57;;
8650;SDS011;4363;52.346;14.516;2022-09-11T00:33:39;307.83;;;171.05;;
8650;SDS011;4363;52.346;14.516;2022-09-11T00:36:06;281.90;;;157.52;;
8650;SDS011;4363;52.346;14.516;2022-09-11T00:38:34;264.75;;;148.95;;
8650;SDS011;4363;52.346;14.516;2022-09-11T00:41:01;272.38;;;154.30;;
8650;SDS011;4363;52.346;14.516;2022-09-11T00:43:28;267.05;;;152.77;;
8650;SDS011;4363;52.346;14.516;2022-09-11T00:45:58;302.55;;;164.05;;
8650;SDS011;4363;52.346;14.516;2022-09-11T00:48:27;310.10;;;170.52;;
8650;SDS011;4363;52.346;14.516;2022-09-11T00:50:55;270.30;;;149.85;;
8650;SDS011;4363;52.346;14.516;2022-09-11T00:53:22;261.25;;;147.48;;
8650;SDS011;4363;52.346;14.516;2022-09-11T00:55:50;263.45;;;149.27;;
8650;SDS011;4363;52.346;14.516;2022-09-11T00:58:19;264.95;;;149.30;;
8650;SDS011;4363;52.346;14.516;2022-09-11T01:00:46;222.70;;;132.45;;
8650;SDS011;4363;52.346;14.516;2022-09-11T01:03:12;253.23;;;149.68;;
8650;SDS011;4363;52.346;14.516;2022-09-11T01:05:39;305.98;;;172.15;;
8650;SDS011;4363;52.346;14.516;2022-09-11T01:08:05;237.07;;;143.23;;
8650;SDS011;4363;52.346;14.516;2022-09-11T01:13:36;234.55;;;142.15;;
8650;SDS011;4363;52.346;14.516;2022-09-11T01:18:33;283.02;;;161.27;;
8650;SDS011;4363;52.346;14.516;2022-09-11T01:31:23;267.13;;;149.63;;
8650;SDS011;4363;52.346;14.516;2022-09-11T01:33:53;288.65;;;164.45;;
8650;SDS011;4363;52.346;14.516;2022-09-11T01:36:23;260.73;;;148.65;;
8650;SDS011;4363;52.346;14.516;2022-09-11T01:38:53;266.23;;;150.90;;
8650;SDS011;4363;52.346;14.516;2022-09-11T01:41:22;221.52;;;135.75;;
8650;SDS011;4363;52.346;14.516;2022-09-11T01:43:53;264.15;;;148.80;;
8650;SDS011;4363;52.346;14.516;2022-09-11T01:46:21;278.05;;;154.35;;
8650;SDS011;4363;52.346;14.516;2022-09-11T01:48:48;281.15;;;159.35;;
8650;SDS011;4363;52.346;14.516;2022-09-11T01:51:18;200.75;;;124.20;;
8650;SDS011;4363;52.346;14.516;2022-09-11T01:53:45;296.98;;;159.00;;
8650;SDS011;4363;52.346;14.516;2022-09-11T01:56:19;257.80;;;145.63;;
8650;SDS011;4363;52.346;14.516;2022-09-11T01:58:46;235.07;;;138.50;;
8650;SDS011;4363;52.346;14.516;2022-09-11T02:01:15;256.13;;;147.52;;
8650;SDS011;4363;52.346;14.516;2022-09-11T02:03:43;235.48;;;137.73;;
8650;SDS011;4363;52.346;14.516;2022-09-11T02:06:13;270.27;;;151.10;;
8650;SDS011;4363;52.346;14.516;2022-09-11T02:08:42;240.57;;;140.57;;
8650;SDS011;4363;52.346;14.516;2022-09-11T02:11:10;259.33;;;147.02;;
8650;SDS011;4363;52.346;14.516;2022-09-11T02:13:52;252.23;;;145.52;;
8650;SDS011;4363;52.346;14.516;2022-09-11T02:16:30;252.73;;;137.10;;
8650;SDS011;4363;52.346;14.516;2022-09-11T02:19:00;220.53;;;131.27;;
8650;SDS011;4363;52.346;14.516;2022-09-11T02:21:27;255.90;;;143.80;;
8650;SDS011;4363;52.346;14.516;2022-09-11T02:23:53;272.60;;;153.43;;
8650;SDS011;4363;52.346;14.516;2022-09-11T02:26:20;252.10;;;140.03;;
8650;SDS011;4363;52.346;14.516;2022-09-11T02:28:48;204.00;;;128.60;;
8650;SDS011;4363;52.346;14.516;2022-09-11T02:31:14;222.90;;;133.47;;
8650;SDS011;4363;52.346;14.516;2022-09-11T02:33:40;241.33;;;139.77;;
8650;SDS011;4363;52.346;14.516;2022-09-11T02:36:22;293.67;;;161.55;;
8650;SDS011;4363;52.346;14.516;2022-09-11T02:39:01;270.20;;;146.90;;
8650;SDS011;4363;52.346;14.516;2022-09-11T02:41:37;265.57;;;146.10;;
8650;SDS011;4363;52.346;14.516;2022-09-11T02:44:11;240.80;;;136.00;;
8650;SDS011;4363;52.346;14.516;2022-09-11T02:46:47;248.52;;;138.55;;
8650;SDS011;4363;52.346;14.516;2022-09-11T02:49:23;254.33;;;140.33;;
8650;SDS011;4363;52.346;14.516;2022-09-11T02:51:56;226.90;;;130.55;;
8650;SDS011;4363;52.346;14.516;2022-09-11T02:57:16;223.13;;;129.10;;
8650;SDS011;4363;52.346;14.516;2022-09-11T03:00:16;228.43;;;132.10;;
8650;SDS011;4363;52.346;14.516;2022-09-11T03:02:38;209.03;;;126.83;;
8650;SDS011;4363;52.346;14.516;2022-09-11T03:05:05;216.37;;;124.70;;
8650;SDS011;4363;52.346;14.516;2022-09-11T03:07:31;210.87;;;121.67;;
8650;SDS011;4363;52.346;14.516;2022-09-11T03:09:57;195.55;;;116.68;;
8650;SDS011;4363;52.346;14.516;2022-09-11T03:12:23;226.20;;;129.27;;
8650;SDS011;4363;52.346;14.516;2022-09-11T03:14:49;218.90;;;123.60;;
8650;SDS011;4363;52.346;14.516;2022-09-11T03:17:15;187.50;;;115.17;;
8650;SDS011;4363;52.346;14.516;2022-09-11T03:19:41;231.80;;;130.00;;
8650;SDS011;4363;52.346;14.516;2022-09-11T03:22:07;220.23;;;125.80;;
8650;SDS011;4363;52.346;14.516;2022-09-11T03:24:33;233.33;;;129.70;;
8650;SDS011;4363;52.346;14.516;2022-09-11T03:26:59;228.13;;;133.33;;
8650;SDS011;4363;52.346;14.516;2022-09-11T03:29:25;208.47;;;122.83;;
8650;SDS011;4363;52.346;14.516;2022-09-11T03:31:52;216.57;;;127.80;;
8650;SDS011;4363;52.346;14.516;2022-09-11T03:34:18;213.77;;;127.47;;
8650;SDS011;4363;52.346;14.516;2022-09-11T03:36:44;222.10;;;130.60;;
8650;SDS011;4363;52.346;14.516;2022-09-11T03:39:11;190.20;;;117.53;;
8650;SDS011;4363;52.346;14.516;2022-09-11T03:41:37;209.60;;;120.73;;
8650;SDS011;4363;52.346;14.516;2022-09-11T03:44:03;192.37;;;115.73;;
8650;SDS011;4363;52.346;14.516;2022-09-11T03:46:29;218.77;;;121.90;;
8650;SDS011;4363;52.346;14.516;2022-09-11T03:48:56;223.27;;;125.57;;
8650;SDS011;4363;52.346;14.516;2022-09-11T03:51:23;217.97;;;122.90;;
8650;SDS011;4363;52.346;14.516;2022-09-11T03:53:50;200.67;;;119.23;;
8650;SDS011;4363;52.346;14.516;2022-09-11T03:56:17;235.97;;;129.17;;
8650;SDS011;4363;52.346;14.516;2022-09-11T03:58:44;260.60;;;138.80;;
8650;SDS011;4363;52.346;14.516;2022-09-11T04:01:11;279.63;;;145.90;;
8650;SDS011;4363;52.346;14.516;2022-09-11T04:03:38;281.40;;;147.03;;
8650;SDS011;4363;52.346;14.516;2022-09-11T04:06:04;276.83;;;151.80;;
8650;SDS011;4363;52.346;14.516;2022-09-11T04:08:30;273.47;;;146.37;;
8650;SDS011;4363;52.346;14.516;2022-09-11T04:10:58;262.40;;;144.93;;
8650;SDS011;4363;52.346;14.516;2022-09-11T04:13:35;322.70;;;165.30;;
8650;SDS011;4363;52.346;14.516;2022-09-11T04:16:02;267.73;;;142.67;;
8650;SDS011;4363;52.346;14.516;2022-09-11T04:18:29;304.77;;;161.23;;
8650;SDS011;4363;52.346;14.516;2022-09-11T04:20:56;240.57;;;136.57;;
8650;SDS011;4363;52.346;14.516;2022-09-11T04:23:22;244.93;;;135.13;;
8650;SDS011;4363;52.346;14.516;2022-09-11T04:25:48;267.42;;;142.02;;
8650;SDS011;4363;52.346;14.516;2022-09-11T04:28:14;267.50;;;144.90;;
8650;SDS011;4363;52.346;14.516;2022-09-11T04:30:40;250.00;;;136.03;;
8650;SDS011;4363;52.346;14.516;2022-09-11T04:33:06;267.23;;;144.10;;
8650;SDS011;4363;52.346;14.516;2022-09-11T04:35:35;290.27;;;149.53;;
8650;SDS011;4363;52.346;14.516;2022-09-11T04:38:02;326.97;;;157.90;;
8650;SDS011;4363;52.346;14.516;2022-09-11T04:40:28;330.57;;;156.73;;
8650;SDS011;4363;52.346;14.516;2022-09-11T04:42:54;365.83;;;173.30;;
8650;SDS011;4363;52.346;14.516;2022-09-11T04:45:20;325.60;;;156.63;;
8650;SDS011;4363;52.346;14.516;2022-09-11T04:47:47;286.07;;;142.03;;
8650;SDS011;4363;52.346;14.516;2022-09-11T04:50:15;342.87;;;164.30;;
8650;SDS011;4363;52.346;14.516;2022-09-11T04:52:43;392.47;;;185.47;;
8650;SDS011;4363;52.346;14.516;2022-09-11T04:55:09;327.37;;;158.87;;
8650;SDS011;4363;52.346;14.516;2022-09-11T04:57:35;341.47;;;167.07;;
8650;SDS011;4363;52.346;14.516;2022-09-11T05:00:02;338.07;;;163.33;;
8650;SDS011;4363;52.346;14.516;2022-09-11T05:02:28;318.80;;;153.83;;
8650;SDS011;4363;52.346;14.516;2022-09-11T05:04:54;310.30;;;150.23;;
8650;SDS011;4363;52.346;14.516;2022-09-11T05:07:20;285.30;;;140.67;;
8650;SDS011;4363;52.346;14.516;2022-09-11T05:09:46;407.67;;;189.10;;
8650;SDS011;4363;52.346;14.516;2022-09-11T05:12:12;332.40;;;157.70;;
8650;SDS011;4363;52.346;14.516;2022-09-11T05:14:38;361.67;;;168.93;;
8650;SDS011;4363;52.346;14.516;2022-09-11T05:17:04;347.43;;;172.00;;
8650;SDS011;4363;52.346;14.516;2022-09-11T05:19:30;366.03;;;169.40;;
8650;SDS011;4363;52.346;14.516;2022-09-11T05:21:56;329.27;;;158.33;;
8650;SDS011;4363;52.346;14.516;2022-09-11T05:24:22;342.73;;;161.43;;
8650;SDS011;4363;52.346;14.516;2022-09-11T05:26:47;329.67;;;154.23;;
8650;SDS011;4363;52.346;14.516;2022-09-11T05:29:14;353.97;;;161.37;;
8650;SDS011;4363;52.346;14.516;2022-09-11T05:31:40;322.27;;;153.40;;
8650;SDS011;4363;52.346;14.516;2022-09-11T05:34:06;385.70;;;180.60;;
8650;SDS011;4363;52.346;14.516;2022-09-11T05:36:32;302.47;;;146.27;;
8650;SDS011;4363;52.346;14.516;2022-09-11T05:38:59;375.17;;;174.90;;
8650;SDS011;4363;52.346;14.516;2022-09-11T05:41:26;311.10;;;149.23;;
8650;SDS011;4363;52.346;14.516;2022-09-11T05:43:52;337.80;;;161.37;;
8650;SDS011;4363;52.346;14.516;2022-09-11T05:46:18;350.47;;;165.93;;
8650;SDS011;4363;52.346;14.516;2022-09-11T05:48:45;369.47;;;171.27;;
8650;SDS011;4363;52.346;14.516;2022-09-11T05:51:17;384.90;;;180.53;;
8650;SDS011;4363;52.346;14.516;2022-09-11T05:53:45;332.87;;;165.10;;
8650;SDS011;4363;52.346;14.516;2022-09-11T05:56:15;340.00;;;165.10;;
8650;SDS011;4363;52.346;14.516;2022-09-11T05:58:42;325.10;;;158.70;;
8650;SDS011;4363;52.346;14.516;2022-09-11T06:01:09;313.20;;;153.17;;
8650;SDS011;4363;52.346;14.516;2022-09-11T06:03:35;372.53;;;181.40;;
8650;SDS011;4363;52.346;14.516;2022-09-11T06:06:02;335.07;;;167.33;;
8650;SDS011;4363;52.346;14.516;2022-09-11T06:08:29;373.57;;;182.53;;
8650;SDS011;4363;52.346;14.516;2022-09-11T06:10:55;329.03;;;170.43;;
8650;SDS011;4363;52.346;14.516;2022-09-11T06:13:22;340.57;;;171.27;;
8650;SDS011;4363;52.346;14.516;2022-09-11T06:15:48;337.13;;;166.70;;
8650;SDS011;4363;52.346;14.516;2022-09-11T06:18:14;328.37;;;164.70;;
8650;SDS011;4363;52.346;14.516;2022-09-11T06:20:41;411.17;;;201.10;;
8650;SDS011;4363;52.346;14.516;2022-09-11T06:23:07;408.23;;;189.17;;
8650;SDS011;4363;52.346;14.516;2022-09-11T06:25:33;386.57;;;181.53;;
8650;SDS011;4363;52.346;14.516;2022-09-11T06:28:00;382.33;;;176.87;;
8650;SDS011;4363;52.346;14.516;2022-09-11T06:30:26;307.83;;;151.10;;
8650;SDS011;4363;52.346;14.516;2022-09-11T06:32:52;316.97;;;155.30;;
8650;SDS011;4363;52.346;14.516;2022-09-11T06:35:20;390.03;;;186.10;;
8650;SDS011;4363;52.346;14.516;2022-09-11T06:37:47;336.43;;;167.33;;
8650;SDS011;4363;52.346;14.516;2022-09-11T06:40:13;325.90;;;171.50;;
8650;SDS011;4363;52.346;14.516;2022-09-11T06:42:39;355.47;;;177.53;;
8650;SDS011;4363;52.346;14.516;2022-09-11T06:45:05;353.97;;;181.93;;
8650;SDS011;4363;52.346;14.516;2022-09-11T06:47:32;363.20;;;185.53;;
8650;SDS011;4363;52.346;14.516;2022-09-11T06:49:58;335.93;;;168.13;;
8650;SDS011;4363;52.346;14.516;2022-09-11T06:52:24;413.57;;;197.53;;
8650;SDS011;4363;52.346;14.516;2022-09-11T06:54:52;324.77;;;161.00;;
8650;SDS011;4363;52.346;14.516;2022-09-11T06:57:18;336.60;;;166.30;;
8650;SDS011;4363;52.346;14.516;2022-09-11T06:59:44;371.90;;;187.07;;
8650;SDS011;4363;52.346;14.516;2022-09-11T07:02:11;407.23;;;201.20;;
8650;SDS011;4363;52.346;14.516;2022-09-11T07:04:37;371.97;;;182.80;;
8650;SDS011;4363;52.346;14.516;2022-09-11T07:07:03;487.73;;;221.63;;
8650;SDS011;4363;52.346;14.516;2022-09-11T07:09:29;384.90;;;179.73;;
8650;SDS011;4363;52.346;14.516;2022-09-11T07:11:55;379.43;;;179.10;;
8650;SDS011;4363;52.346;14.516;2022-09-11T07:14:21;387.93;;;191.57;;
8650;SDS011;4363;52.346;14.516;2022-09-11T07:16:48;376.03;;;183.63;;
8650;SDS011;4363;52.346;14.516;2022-09-11T07:19:14;402.67;;;193.87;;
8650;SDS011;4363;52.346;14.516;2022-09-11T07:21:42;334.50;;;167.47;;
8650;SDS011;4363;52.346;14.516;2022-09-11T07:24:08;363.77;;;182.73;;
8650;SDS011;4363;52.346;14.516;2022-09-11T07:26:34;357.97;;;179.30;;
8650;SDS011;4363;52.346;14.516;2022-09-11T07:29:00;366.83;;;184.30;;
8650;SDS011;4363;52.346;14.516;2022-09-11T07:31:27;338.83;;;173.17;;
8650;SDS011;4363;52.346;14.516;2022-09-11T07:33:54;332.17;;;166.60;;
8650;SDS011;4363;52.346;14.516;2022-09-11T07:36:22;406.73;;;202.60;;
8650;SDS011;4363;52.346;14.516;2022-09-11T07:38:49;340.87;;;173.63;;
8650;SDS011;4363;52.346;14.516;2022-09-11T07:41:16;371.50;;;185.50;;
8650;SDS011;4363;52.346;14.516;2022-09-11T07:43:42;360.73;;;180.03;;
8650;SDS011;4363;52.346;14.516;2022-09-11T07:46:14;419.07;;;211.80;;
8650;SDS011;4363;52.346;14.516;2022-09-11T07:48:41;386.57;;;197.83;;
8650;SDS011;4363;52.346;14.516;2022-09-11T07:51:08;344.67;;;177.80;;
8650;SDS011;4363;52.346;14.516;2022-09-11T07:53:35;372.37;;;190.80;;
8650;SDS011;4363;52.346;14.516;2022-09-11T07:56:02;424.97;;;212.80;;
8650;SDS011;4363;52.346;14.516;2022-09-11T07:58:35;416.17;;;210.97;;
8650;SDS011;4363;52.346;14.516;2022-09-11T08:01:02;411.33;;;206.87;;
8650;SDS011;4363;52.346;14.516;2022-09-11T08:03:29;420.07;;;211.17;;
8650;SDS011;4363;52.346;14.516;2022-09-11T08:05:58;348.88;;;181.55;;
8650;SDS011;4363;52.346;14.516;2022-09-11T08:08:24;363.73;;;185.23;;
8650;SDS011;4363;52.346;14.516;2022-09-11T08:10:53;346.03;;;178.07;;
8650;SDS011;4363;52.346;14.516;2022-09-11T08:13:20;431.73;;;216.50;;
8650;SDS011;4363;52.346;14.516;2022-09-11T08:15:46;410.90;;;202.20;;
8650;SDS011;4363;52.346;14.516;2022-09-11T08:18:12;389.55;;;198.57;;
8650;SDS011;4363;52.346;14.516;2022-09-11T08:20:38;384.10;;;195.27;;
8650;SDS011;4363;52.346;14.516;2022-09-11T08:23:05;381.42;;;199.48;;
8650;SDS011;4363;52.346;14.516;2022-09-11T08:25:33;397.75;;;204.05;;
8650;SDS011;4363;52.346;14.516;2022-09-11T08:27:59;382.03;;;201.53;;
8650;SDS011;4363;52.346;14.516;2022-09-11T08:30:25;389.63;;;195.87;;
8650;SDS011;4363;52.346;14.516;2022-09-11T08:32:51;335.02;;;177.13;;
8650;SDS011;4363;52.346;14.516;2022-09-11T08:35:17;433.48;;;214.63;;
8650;SDS011;4363;52.346;14.516;2022-09-11T08:37:44;416.23;;;210.35;;
8650;SDS011;4363;52.346;14.516;2022-09-11T08:40:10;408.70;;;203.95;;
8650;SDS011;4363;52.346;14.516;2022-09-11T08:42:38;450.40;;;214.32;;
8650;SDS011;4363;52.346;14.516;2022-09-11T08:45:05;426.85;;;212.63;;
8650;SDS011;4363;52.346;14.516;2022-09-11T08:47:35;382.60;;;184.93;;
8650;SDS011;4363;52.346;14.516;2022-09-11T08:50:14;429.75;;;198.30;;
8650;SDS011;4363;52.346;14.516;2022-09-11T08:52:41;386.58;;;183.35;;
8650;SDS011;4363;52.346;14.516;2022-09-11T08:55:10;376.70;;;183.77;;
8650;SDS011;4363;52.346;14.516;2022-09-11T08:57:45;441.33;;;201.60;;
8650;SDS011;4363;52.346;14.516;2022-09-11T09:00:38;404.77;;;188.80;;
8650;SDS011;4363;52.346;14.516;2022-09-11T09:14:20;383.88;;;188.07;;
8650;SDS011;4363;52.346;14.516;2022-09-11T09:16:58;403.25;;;185.55;;
8650;SDS011;4363;52.346;14.516;2022-09-11T09:19:27;415.33;;;190.32;;
8650;SDS011;4363;52.346;14.516;2022-09-11T09:24:27;417.00;;;195.40;;
8650;SDS011;4363;52.346;14.516;2022-09-11T09:26:55;404.17;;;190.35;;
8650;SDS011;4363;52.346;14.516;2022-09-11T09:29:22;381.42;;;187.80;;
8650;SDS011;4363;52.346;14.516;2022-09-11T09:31:50;422.55;;;202.68;;
8650;SDS011;4363;52.346;14.516;2022-09-11T09:34:21;385.30;;;192.35;;
8650;SDS011;4363;52.346;14.516;2022-09-11T09:39:22;383.52;;;184.95;;
8650;SDS011;4363;52.346;14.516;2022-09-11T09:41:55;428.67;;;200.02;;
8650;SDS011;4363;52.346;14.516;2022-09-11T09:46:58;359.58;;;187.45;;
8650;SDS011;4363;52.346;14.516;2022-09-11T09:49:25;387.60;;;191.70;;
8650;SDS011;4363;52.346;14.516;2022-09-11T09:51:55;357.98;;;186.10;;
8650;SDS011;4363;52.346;14.516;2022-09-11T09:54:23;358.58;;;182.80;;
8650;SDS011;4363;52.346;14.516;2022-09-11T09:56:57;420.92;;;218.32;;
8650;SDS011;4363;52.346;14.516;2022-09-11T09:59:40;372.73;;;191.70;;
8650;SDS011;4363;52.346;14.516;2022-09-11T10:02:06;401.25;;;205.43;;
8650;SDS011;4363;52.346;14.516;2022-09-11T10:04:32;409.80;;;208.40;;
8650;SDS011;4363;52.346;14.516;2022-09-11T10:07:11;362.10;;;183.93;;
8650;SDS011;4363;52.346;14.516;2022-09-11T10:09:45;355.80;;;190.82;;
8650;SDS011;4363;52.346;14.516;2022-09-11T10:12:30;395.17;;;205.02;;
8650;SDS011;4363;52.346;14.516;2022-09-11T10:17:23;404.67;;;201.35;;
8650;SDS011;4363;52.346;14.516;2022-09-11T10:20:10;421.67;;;212.13;;
8650;SDS011;4363;52.346;14.516;2022-09-11T10:22:37;412.05;;;212.80;;
8650;SDS011;4363;52.346;14.516;2022-09-11T10:25:11;364.40;;;190.70;;
8650;SDS011;4363;52.346;14.516;2022-09-11T10:27:39;397.92;;;199.07;;
8650;SDS011;4363;52.346;14.516;2022-09-11T10:30:22;389.42;;;201.13;;
8650;SDS011;4363;52.346;14.516;2022-09-11T10:32:48;340.27;;;177.13;;
8650;SDS011;4363;52.346;14.516;2022-09-11T10:35:15;351.35;;;189.15;;
8650;SDS011;4363;52.346;14.516;2022-09-11T10:37:41;397.67;;;202.90;;
8650;SDS011;4363;52.346;14.516;2022-09-11T10:40:17;368.05;;;190.85;;
8650;SDS011;4363;52.346;14.516;2022-09-11T10:42:43;390.58;;;195.80;;
8650;SDS011;4363;52.346;14.516;2022-09-11T10:45:14;462.13;;;221.75;;
8650;SDS011;4363;52.346;14.516;2022-09-11T10:47:41;431.60;;;214.48;;
8650;SDS011;4363;52.346;14.516;2022-09-11T10:52:45;407.70;;;207.07;;
8650;SDS011;4363;52.346;14.516;2022-09-11T10:55:13;411.23;;;197.93;;
8650;SDS011;4363;52.346;14.516;2022-09-11T11:02:42;375.05;;;200.02;;
8650;SDS011;4363;52.346;14.516;2022-09-11T11:05:26;436.25;;;210.65;;
8650;SDS011;4363;52.346;14.516;2022-09-11T11:07:59;391.90;;;193.65;;
8650;SDS011;4363;52.346;14.516;2022-09-11T11:17:50;362.63;;;187.63;;
8650;SDS011;4363;52.346;14.516;2022-09-11T11:20:22;382.67;;;191.27;;
8650;SDS011;4363;52.346;14.516;2022-09-11T11:25:39;397.17;;;200.60;;
8650;SDS011;4363;52.346;14.516;2022-09-11T11:30:37;420.05;;;212.05;;
8650;SDS011;4363;52.346;14.516;2022-09-11T11:33:17;378.05;;;193.85;;
8650;SDS011;4363;52.346;14.516;2022-09-11T11:35:57;444.20;;;213.23;;
8650;SDS011;4363;52.346;14.516;2022-09-11T11:38:39;428.83;;;210.25;;
8650;SDS011;4363;52.346;14.516;2022-09-11T11:41:28;367.45;;;188.75;;
8650;SDS011;4363;52.346;14.516;2022-09-11T11:43:53;373.42;;;198.50;;
8650;SDS011;4363;52.346;14.516;2022-09-11T11:51:16;394.52;;;205.65;;
8650;SDS011;4363;52.346;14.516;2022-09-11T11:53:45;375.95;;;200.63;;
8650;SDS011;4363;52.346;14.516;2022-09-11T11:56:16;392.33;;;206.55;;
8650;SDS011;4363;52.346;14.516;2022-09-11T12:01:35;407.65;;;214.90;;
8650;SDS011;4363;52.346;14.516;2022-09-11T12:04:03;398.88;;;217.85;;
8650;SDS011;4363;52.346;14.516;2022-09-11T12:06:35;393.45;;;212.70;;
8650;SDS011;4363;52.346;14.516;2022-09-11T12:09:01;348.60;;;198.52;;
8650;SDS011;4363;52.346;14.516;2022-09-11T12:11:29;366.90;;;204.02;;
8650;SDS011;4363;52.346;14.516;2022-09-11T12:13:55;394.17;;;217.98;;
8650;SDS011;4363;52.346;14.516;2022-09-11T12:16:30;422.27;;;224.45;;
8650;SDS011;4363;52.346;14.516;2022-09-11T12:26:21;431.88;;;220.13;;
8650;SDS011;4363;52.346;14.516;2022-09-11T12:28:48;364.77;;;195.30;;
8650;SDS011;4363;52.346;14.516;2022-09-11T12:31:16;350.50;;;187.15;;
8650;SDS011;4363;52.346;14.516;2022-09-11T12:38:35;423.55;;;224.50;;
8650;SDS011;4363;52.346;14.516;2022-09-11T12:41:11;406.52;;;210.88;;
8650;SDS011;4363;52.346;14.516;2022-09-11T12:56:58;391.65;;;202.98;;
8650;SDS011;4363;52.346;14.516;2022-09-11T12:59:30;401.10;;;202.60;;
8650;SDS011;4363;52.346;14.516;2022-09-11T13:01:57;396.85;;;214.90;;
8650;SDS011;4363;52.346;14.516;2022-09-11T13:04:23;432.63;;;216.00;;
8650;SDS011;4363;52.346;14.516;2022-09-11T13:09:22;407.52;;;202.23;;
8650;SDS011;4363;52.346;14.516;2022-09-11T13:11:51;366.42;;;190.68;;
8650;SDS011;4363;52.346;14.516;2022-09-11T13:16:50;363.92;;;191.77;;
8650;SDS011;4363;52.346;14.516;2022-09-11T13:19:16;372.80;;;199.25;;
8650;SDS011;4363;52.346;14.516;2022-09-11T13:21:44;345.35;;;180.38;;
8650;SDS011;4363;52.346;14.516;2022-09-11T13:24:45;360.25;;;200.13;;
8650;SDS011;4363;52.346;14.516;2022-09-11T13:29:31;387.63;;;223.02;;
8650;SDS011;4363;52.346;14.516;2022-09-11T13:31:59;368.48;;;213.65;;
8650;SDS011;4363;52.346;14.516;2022-09-11T13:34:29;342.23;;;204.25;;
8650;SDS011;4363;52.346;14.516;2022-09-11T13:36:59;394.00;;;232.30;;
8650;SDS011;4363;52.346;14.516;2022-09-11T13:39:25;361.67;;;216.40;;
8650;SDS011;4363;52.346;14.516;2022-09-11T13:41:54;417.75;;;247.57;;
8650;SDS011;4363;52.346;14.516;2022-09-11T13:46:55;382.25;;;229.20;;
8650;SDS011;4363;52.346;14.516;2022-09-11T13:49:31;375.45;;;218.65;;
8650;SDS011;4363;52.346;14.516;2022-09-11T13:51:59;355.15;;;205.60;;
8650;SDS011;4363;52.346;14.516;2022-09-11T13:54:29;408.05;;;232.18;;
8650;SDS011;4363;52.346;14.516;2022-09-11T14:02:00;378.58;;;210.60;;
8650;SDS011;4363;52.346;14.516;2022-09-11T14:04:27;369.60;;;219.88;;
8650;SDS011;4363;52.346;14.516;2022-09-11T14:06:54;390.63;;;224.63;;
8650;SDS011;4363;52.346;14.516;2022-09-11T14:09:20;373.35;;;205.85;;
8650;SDS011;4363;52.346;14.516;2022-09-11T14:11:47;375.80;;;209.82;;
8650;SDS011;4363;52.346;14.516;2022-09-11T14:14:18;369.23;;;206.48;;
8650;SDS011;4363;52.346;14.516;2022-09-11T14:16:50;372.55;;;216.82;;
8650;SDS011;4363;52.346;14.516;2022-09-11T14:19:19;381.52;;;215.15;;
8650;SDS011;4363;52.346;14.516;2022-09-11T14:21:47;374.90;;;214.50;;
8650;SDS011;4363;52.346;14.516;2022-09-11T14:26:48;401.73;;;216.52;;
8650;SDS011;4363;52.346;14.516;2022-09-11T14:29:22;424.88;;;226.98;;
8650;SDS011;4363;52.346;14.516;2022-09-11T14:31:49;449.15;;;230.43;;
8650;SDS011;4363;52.346;14.516;2022-09-11T14:34:16;441.02;;;237.30;;
8650;SDS011;4363;52.346;14.516;2022-09-11T14:41:48;434.20;;;226.85;;
8650;SDS011;4363;52.346;14.516;2022-09-11T14:44:15;475.65;;;256.85;;
8650;SDS011;4363;52.346;14.516;2022-09-11T14:46:41;442.30;;;232.52;;
8650;SDS011;4363;52.346;14.516;2022-09-11T14:49:08;381.33;;;218.90;;
8650;SDS011;4363;52.346;14.516;2022-09-11T14:51:37;447.47;;;239.13;;
8650;SDS011;4363;52.346;14.516;2022-09-11T14:54:04;426.60;;;234.05;;
8650;SDS011;4363;52.346;14.516;2022-09-11T14:56:30;373.00;;;205.63;;
8650;SDS011;4363;52.346;14.516;2022-09-11T14:58:57;390.02;;;215.77;;
8650;SDS011;4363;52.346;14.516;2022-09-11T15:01:23;383.40;;;216.38;;
8650;SDS011;4363;52.346;14.516;2022-09-11T15:03:50;436.40;;;238.48;;
8650;SDS011;4363;52.346;14.516;2022-09-11T15:06:17;366.80;;;203.80;;
8650;SDS011;4363;52.346;14.516;2022-09-11T15:08:44;411.63;;;217.98;;
8650;SDS011;4363;52.346;14.516;2022-09-11T15:11:10;389.85;;;213.27;;
8650;SDS011;4363;52.346;14.516;2022-09-11T15:13:36;367.70;;;205.70;;
8650;SDS011;4363;52.346;14.516;2022-09-11T15:16:02;413.13;;;221.88;;
8650;SDS011;4363;52.346;14.516;2022-09-11T15:18:29;437.27;;;237.43;;
8650;SDS011;4363;52.346;14.516;2022-09-11T15:20:56;361.52;;;200.32;;
8650;SDS011;4363;52.346;14.516;2022-09-11T15:23:22;419.52;;;226.13;;
8650;SDS011;4363;52.346;14.516;2022-09-11T15:25:48;391.83;;;214.80;;
8650;SDS011;4363;52.346;14.516;2022-09-11T15:28:13;381.95;;;205.75;;
8650;SDS011;4363;52.346;14.516;2022-09-11T15:30:40;389.85;;;207.38;;
8650;SDS011;4363;52.346;14.516;2022-09-11T15:33:06;371.27;;;206.02;;
8650;SDS011;4363;52.346;14.516;2022-09-11T15:35:33;427.90;;;227.07;;
8650;SDS011;4363;52.346;14.516;2022-09-11T15:37:59;387.48;;;209.93;;
8650;SDS011;4363;52.346;14.516;2022-09-11T15:40:25;345.83;;;192.02;;
8650;SDS011;4363;52.346;14.516;2022-09-11T15:42:51;343.55;;;187.95;;
8650;SDS011;4363;52.346;14.516;2022-09-11T15:45:18;339.15;;;184.88;;
8650;SDS011;4363;52.346;14.516;2022-09-11T15:47:44;363.67;;;197.90;;
8650;SDS011;4363;52.346;14.516;2022-09-11T15:50:11;347.58;;;191.45;;
8650;SDS011;4363;52.346;14.516;2022-09-11T15:52:42;390.40;;;212.85;;
8650;SDS011;4363;52.346;14.516;2022-09-11T15:55:08;375.27;;;202.35;;
8650;SDS011;4363;52.346;14.516;2022-09-11T15:57:34;378.92;;;208.55;;
8650;SDS011;4363;52.346;14.516;2022-09-11T16:00:01;423.08;;;227.15;;
8650;SDS011;4363;52.346;14.516;2022-09-11T16:02:27;408.25;;;209.30;;
8650;SDS011;4363;52.346;14.516;2022-09-11T16:04:53;355.02;;;193.60;;
8650;SDS011;4363;52.346;14.516;2022-09-11T16:07:19;405.75;;;213.70;;
8650;SDS011;4363;52.346;14.516;2022-09-11T16:09:45;396.85;;;215.40;;
8650;SDS011;4363;52.346;14.516;2022-09-11T16:12:11;410.27;;;217.02;;